Terminal Aerodrome Forecast
Issued by NWS Binghamton, NY

Home | Current Version | Previous Version | Text Only | Print | Product List | Glossary On
Versions: 1 2 3 4 5 6 7 8 9 10 11 12 13 14 15 16 17 18 19 20 21 22
000
FTUS41 KBGM 241900 AAA
TAFAVP
TAF AMD
KAVP 241935Z 2420/2518 35010G16KT P6SM BKN050
     FM250000 07004KT P6SM SKC
     FM251500 30006KT P6SM SCT040=

USA.gov is the U.S. government's official web portal to all federal, state and local government web resources and services.